Marchwood, United Kingdom
Current Conditions -  °F | °C
As of 2:20 PM on Tuesday 27 Jan 2015 (Local Time) from EGHI Reporting Station
Scattered Clouds Scattered Clouds  
Wind Chill: 41°   Ceiling: Unl
Heat Index: 46°   Visibility: 6mi
Dew Point: 36°   Wind: 12mph
Humidity: 66%   Direction: 280°W
Pressure: 30.3"   Gusts: NA
Location:  50.89°N, 1.45°W
Report Text: EGHI 271420Z 28010KT 240V320 9999 SCT024 08/02 Q1026
Loading
Personal Weather Stations






























Interactive Weather Map New forecast layout! Learn more

10-Day Weather Forecast

Advertisements
Track Severe Weather on mobile